メインページ
METAR-TAF:

METAR-TAF

空港 :

ヤップ州, ミクロネシア

ヤップ国際空港

緯度: 09-29N, 経度: 138-05E, 海抜: 28m

現時点の気象観測

当レポートは23分前の11:53(UTC)に作成
変向風 4kt
気温 28°C
湿度 89%
気圧 1011 hPa
視程: 19.3km
高度1600ftの雲はほとんどない
高度13000ftの雲は散在している
高度30000ftの千切れ雲あり

METAR: PTYA 241153Z VRB04KT 12SM FEW016 SCT130 BKN300 28/26 A2986 RMK SLP112 70003 8/171 T02750255 10303 20275 53007

時間: 22:16 (12:16 UTC)

予報

当レポートは53分前の11:23(UTC)に作成
予報は24日の 12時(UTC)から 25日の 12時(UTC)まで有効
の風 7kt
視程: 10km
高度1600ftの雲は散在している
高度13000ftの雲は散在している
高度30000ftの千切れ雲あり

TAF: PTYA 241123Z 2412/2512 08007KT P6SM SCT016 SCT130 BKN300

4,000以上の空港の気象観測と天気予報(METAR報とTAF報)

利用可能な観測所は地図上に黄色い丸と赤い丸で示す。

丸の上にカーソルを重ねると観測所名を参照できる。

次にクリックすると気象観測と天気予報を参照できる。

マップの切り替え:黒色「×」印の緑ボタンをクリックして拡大、「-」印の緑ボタンをクリックして縮小、緑色の三角印をクリックして隣りの地図に切り替え


METAR-TAF: